Time;durP1;ratioP1;P1;durP2;ratioP2;P2;SDS_P1;SDS_P2;PMS_P1;PMS_P2;Temp;Humidity;BMP_temperature;BMP_pressure;BME280_temperature;BME280_humidity;BME280_pressure;Samples;Min_cycle;Max_cycle;Signal;HPM_P1;HPM_P2
2023/01/12 00:00:47;;;;;;;16.90;9.30;;;;;;;-128.00;-1.00;-1.00;101212;1305;1002555;-31
2023/01/12 00:03:13;;;;;;;18.80;7.40;;;;;;;-128.00;-1.00;-1.00;101261;1305;1004473;-34
2023/01/12 00:05:39;;;;;;;17.60;9.30;;;;;;;-128.00;-1.00;-1.00;101171;1305;1003423;-31
2023/01/12 00:08:04;;;;;;;14.00;7.60;;;;;;;-128.00;-1.00;-1.00;101100;1305;1003683;-36
2023/01/12 00:10:30;;;;;;;13.60;7.80;;;;;;;-128.00;-1.00;-1.00;101221;1305;1004729;-37
2023/01/12 00:12:57;;;;;;;15.90;8.60;;;;;;;-128.00;-1.00;-1.00;101103;1305;1003239;-32
2023/01/12 00:18:00;;;;;;;23.50;9.50;;;;;;;-128.00;-1.00;-1.00;101153;1304;1003875;-35
2023/01/12 00:20:25;;;;;;;14.60;8.00;;;;;;;-128.00;-1.00;-1.00;101124;1305;1003797;-37
2023/01/12 00:22:51;;;;;;;13.20;7.10;;;;;;;-128.00;-1.00;-1.00;101113;1304;1003673;-36
2023/01/12 00:25:16;;;;;;;13.90;6.20;;;;;;;-128.00;-1.00;-1.00;101261;1304;1004634;-33
2023/01/12 00:27:42;;;;;;;13.90;7.40;;;;;;;-128.00;-1.00;-1.00;101151;1304;1003582;-31
2023/01/12 00:30:09;;;;;;;11.50;5.30;;;;;;;-128.00;-1.00;-1.00;101179;1305;1004224;-32
2023/01/12 00:32:34;;;;;;;8.90;4.50;;;;;;;-128.00;-1.00;-1.00;101157;1304;1004332;-32
2023/01/12 00:35:00;;;;;;;15.40;9.10;;;;;;;-128.00;-1.00;-1.00;101184;1305;1004884;-32
2023/01/12 00:37:26;;;;;;;9.50;6.50;;;;;;;-128.00;-1.00;-1.00;101122;1305;1003310;-33
2023/01/12 00:39:51;;;;;;;14.40;8.20;;;;;;;-128.00;-1.00;-1.00;101276;1305;1004976;-32
2023/01/12 00:47:32;;;;;;;23.90;5.40;;;;;;;-128.00;-1.00;-1.00;101063;1305;1003357;-32
2023/01/12 00:49:58;;;;;;;12.50;7.40;;;;;;;-128.00;-1.00;-1.00;101314;1305;1002881;-35
2023/01/12 00:52:23;;;;;;;15.60;5.50;;;;;;;-128.00;-1.00;-1.00;101288;1305;1003301;-36
2023/01/12 00:54:49;;;;;;;10.30;5.20;;;;;;;-128.00;-1.00;-1.00;101096;1305;1003661;-32
2023/01/12 00:57:16;;;;;;;17.40;8.00;;;;;;;-128.00;-1.00;-1.00;101069;1305;1004236;-35
2023/01/12 00:59:43;;;;;;;15.00;7.10;;;;;;;-128.00;-1.00;-1.00;101185;1305;1004453;-36
2023/01/12 01:02:09;;;;;;;19.10;7.80;;;;;;;-128.00;-1.00;-1.00;101157;1305;1004037;-31
2023/01/12 01:04:35;;;;;;;9.00;5.00;;;;;;;-128.00;-1.00;-1.00;101222;1305;1002514;-36
2023/01/12 01:07:01;;;;;;;12.80;7.90;;;;;;;-128.00;-1.00;-1.00;101054;1305;1003516;-35
2023/01/12 01:09:28;;;;;;;10.90;7.30;;;;;;;-128.00;-1.00;-1.00;101067;1305;1003744;-32
2023/01/12 01:11:54;;;;;;;26.90;6.90;;;;;;;-128.00;-1.00;-1.00;101200;1305;1004380;-36
2023/01/12 01:14:20;;;;;;;12.00;5.80;;;;;;;-128.00;-1.00;-1.00;101203;1305;1002609;-36
2023/01/12 01:16:46;;;;;;;7.70;4.50;;;;;;;-128.00;-1.00;-1.00;101066;1305;1002889;-35
2023/01/12 01:19:11;;;;;;;19.10;6.30;;;;;;;-128.00;-1.00;-1.00;101109;1305;1003766;-36
2023/01/12 01:21:37;;;;;;;11.60;7.10;;;;;;;-128.00;-1.00;-1.00;101121;1305;1004102;-37
2023/01/12 01:24:03;;;;;;;14.20;6.80;;;;;;;-128.00;-1.00;-1.00;101199;1305;1002853;-34
2023/01/12 01:26:30;;;;;;;15.10;7.90;;;;;;;-128.00;-1.00;-1.00;101217;1305;1004018;-34
2023/01/12 01:28:56;;;;;;;2.80;2.10;;;;;;;-128.00;-1.00;-1.00;101000;1305;1002734;-34
2023/01/12 01:31:22;;;;;;;8.60;4.00;;;;;;;-128.00;-1.00;-1.00;101150;1305;1002980;-33
2023/01/12 01:33:48;;;;;;;13.40;7.00;;;;;;;-128.00;-1.00;-1.00;101171;1305;1003257;-34
2023/01/12 01:36:14;;;;;;;16.70;9.90;;;;;;;-128.00;-1.00;-1.00;101254;1305;1004697;-35
2023/01/12 01:38:42;;;;;;;12.30;6.40;;;;;;;-128.00;-1.00;-1.00;101300;1305;1003755;-36
2023/01/12 01:41:09;;;;;;;16.80;7.10;;;;;;;-128.00;-1.00;-1.00;101183;1305;1004518;-32
2023/01/12 01:43:51;;;;;;;9.10;5.90;;;;;;;-128.00;-1.00;-1.00;101064;1305;1004147;-35
2023/01/12 01:46:26;;;;;;;10.40;5.40;;;;;;;-128.00;-1.00;-1.00;101061;1305;1003170;-32
2023/01/12 01:48:52;;;;;;;8.80;6.00;;;;;;;-128.00;-1.00;-1.00;101058;1305;1003281;-36
2023/01/12 01:51:17;;;;;;;14.30;6.50;;;;;;;-128.00;-1.00;-1.00;101023;1305;1004333;-32
2023/01/12 01:53:44;;;;;;;8.30;6.40;;;;;;;-128.00;-1.00;-1.00;101126;1305;1003966;-33
2023/01/12 01:56:12;;;;;;;13.40;7.20;;;;;;;-128.00;-1.00;-1.00;101177;1305;1005065;-35
2023/01/12 01:58:48;;;;;;;11.60;6.70;;;;;;;-128.00;-1.00;-1.00;101165;1305;1003021;-33
2023/01/12 02:01:13;;;;;;;19.40;6.80;;;;;;;-128.00;-1.00;-1.00;101102;1305;1003138;-32
2023/01/12 02:03:39;;;;;;;11.30;6.10;;;;;;;-128.00;-1.00;-1.00;101151;1305;1003066;-32
2023/01/12 02:06:05;;;;;;;7.80;5.80;;;;;;;-128.00;-1.00;-1.00;101101;1305;1003945;-35
2023/01/12 02:08:34;;;;;;;9.50;6.50;;;;;;;-128.00;-1.00;-1.00;101098;1305;1003452;-35
2023/01/12 02:11:00;;;;;;;12.50;6.80;;;;;;;-128.00;-1.00;-1.00;101100;1305;1003818;-32
2023/01/12 02:16:21;;;;;;;8.20;5.80;;;;;;;-128.00;-1.00;-1.00;101133;1305;1002954;-32
2023/01/12 02:19:11;;;;;;;12.90;5.80;;;;;;;-128.00;-1.00;-1.00;101104;1305;1003893;-35
2023/01/12 02:22:08;;;;;;;10.90;6.40;;;;;;;-128.00;-1.00;-1.00;101160;1305;1003903;-36
2023/01/12 02:24:58;;;;;;;12.10;7.50;;;;;;;-128.00;-1.00;-1.00;101163;1305;1003056;-37
2023/01/12 02:27:39;;;;;;;10.60;5.90;;;;;;;-128.00;-1.00;-1.00;101155;1305;1003797;-33
2023/01/12 02:30:37;;;;;;;10.80;7.20;;;;;;;-128.00;-1.00;-1.00;101249;1305;1003813;-37
2023/01/12 02:33:18;;;;;;;6.00;4.80;;;;;;;-128.00;-1.00;-1.00;101123;1305;1002603;-33
2023/01/12 02:35:50;;;;;;;9.20;7.00;;;;;;;-128.00;-1.00;-1.00;101047;1305;1003527;-37
2023/01/12 02:38:30;;;;;;;11.90;4.40;;;;;;;-128.00;-1.00;-1.00;101222;1305;1003186;-34
2023/01/12 02:41:07;;;;;;;6.80;4.40;;;;;;;-128.00;-1.00;-1.00;101094;1305;1002960;-36
2023/01/12 02:43:34;;;;;;;9.80;6.50;;;;;;;-128.00;-1.00;-1.00;101219;1305;1003370;-32
2023/01/12 02:46:13;;;;;;;8.10;5.60;;;;;;;-128.00;-1.00;-1.00;101241;1305;1002905;-36
2023/01/12 02:48:47;;;;;;;11.50;6.20;;;;;;;-128.00;-1.00;-1.00;101111;1305;1003561;-35
2023/01/12 02:51:37;;;;;;;8.40;5.90;;;;;;;-128.00;-1.00;-1.00;101102;1305;1003407;-33
2023/01/12 02:54:08;;;;;;;10.70;6.60;;;;;;;-128.00;-1.00;-1.00;101226;1305;1002974;-32
2023/01/12 02:56:37;;;;;;;9.60;4.60;;;;;;;-128.00;-1.00;-1.00;101050;1305;1002920;-36
2023/01/12 02:59:06;;;;;;;11.50;7.10;;;;;;;-128.00;-1.00;-1.00;101174;1305;1002632;-36
2023/01/12 03:01:32;;;;;;;8.80;5.50;;;;;;;-128.00;-1.00;-1.00;101237;1301;1002788;-35
2023/01/12 03:03:58;;;;;;;10.10;6.10;;;;;;;-128.00;-1.00;-1.00;101195;1305;1003722;-36
2023/01/12 03:06:24;;;;;;;16.10;7.00;;;;;;;-128.00;-1.00;-1.00;101070;1305;1004286;-36
2023/01/12 03:08:50;;;;;;;12.00;5.80;;;;;;;-128.00;-1.00;-1.00;101059;1305;1003518;-32
2023/01/12 03:11:17;;;;;;;6.90;5.20;;;;;;;-128.00;-1.00;-1.00;101029;1305;1003527;-36
2023/01/12 03:13:48;;;;;;;7.50;5.70;;;;;;;-128.00;-1.00;-1.00;101110;1305;1003220;-36
2023/01/12 03:16:16;;;;;;;8.30;5.80;;;;;;;-128.00;-1.00;-1.00;101147;1305;1002531;-36
2023/01/12 03:18:47;;;;;;;9.50;4.90;;;;;;;-128.00;-1.00;-1.00;101097;1305;1003606;-33
2023/01/12 03:21:27;;;;;;;13.60;6.20;;;;;;;-128.00;-1.00;-1.00;101228;1305;1003288;-34
2023/01/12 03:24:01;;;;;;;11.40;6.10;;;;;;;-128.00;-1.00;-1.00;101155;1305;1004029;-37
2023/01/12 03:26:27;;;;;;;7.30;5.20;;;;;;;-128.00;-1.00;-1.00;101146;1305;1002737;-36
2023/01/12 03:28:57;;;;;;;11.20;5.90;;;;;;;-128.00;-1.00;-1.00;101234;1305;1004356;-32
2023/01/12 03:31:23;;;;;;;7.00;4.40;;;;;;;-128.00;-1.00;-1.00;101154;1305;1002739;-31
2023/01/12 03:33:48;;;;;;;9.90;6.50;;;;;;;-128.00;-1.00;-1.00;101110;1305;1004551;-34
2023/01/12 03:36:31;;;;;;;14.80;6.80;;;;;;;-128.00;-1.00;-1.00;101082;1305;1003860;-36
2023/01/12 03:39:13;;;;;;;15.60;8.70;;;;;;;-128.00;-1.00;-1.00;101215;1305;1002961;-31
2023/01/12 03:41:52;;;;;;;10.80;6.40;;;;;;;-128.00;-1.00;-1.00;101152;1305;1002873;-31
2023/01/12 03:44:29;;;;;;;18.70;10.00;;;;;;;-128.00;-1.00;-1.00;101048;1304;1004121;-35
2023/01/12 03:46:58;;;;;;;14.20;8.50;;;;;;;-128.00;-1.00;-1.00;101025;1297;1003240;-32
2023/01/12 03:49:33;;;;;;;17.70;8.00;;;;;;;-128.00;-1.00;-1.00;101118;1305;1003338;-32
2023/01/12 03:51:59;;;;;;;14.10;9.30;;;;;;;-128.00;-1.00;-1.00;101194;1305;1004428;-32
2023/01/12 03:54:26;;;;;;;12.30;7.30;;;;;;;-128.00;-1.00;-1.00;101158;1305;1002866;-36
2023/01/12 03:56:53;;;;;;;13.20;7.10;;;;;;;-128.00;-1.00;-1.00;101179;1305;1003077;-32
2023/01/12 03:59:19;;;;;;;13.10;9.60;;;;;;;-128.00;-1.00;-1.00;101217;1305;1004565;-38
2023/01/12 04:01:47;;;;;;;17.40;9.00;;;;;;;-128.00;-1.00;-1.00;101234;1305;1003241;-33
2023/01/12 04:04:13;;;;;;;11.80;6.30;;;;;;;-128.00;-1.00;-1.00;101064;1305;1005290;-33
2023/01/12 04:06:39;;;;;;;16.10;7.50;;;;;;;-128.00;-1.00;-1.00;101038;1305;1003853;-36
2023/01/12 04:09:05;;;;;;;10.10;6.70;;;;;;;-128.00;-1.00;-1.00;101173;1305;1003354;-33
2023/01/12 04:14:09;;;;;;;10.50;7.80;;;;;;;-128.00;-1.00;-1.00;101093;1305;1003512;-30
2023/01/12 04:16:34;;;;;;;9.50;6.50;;;;;;;-128.00;-1.00;-1.00;101122;1305;1003448;-32
2023/01/12 04:19:00;;;;;;;9.10;7.10;;;;;;;-128.00;-1.00;-1.00;101186;1305;1003333;-34
2023/01/12 04:24:03;;;;;;;18.10;7.30;;;;;;;-128.00;-1.00;-1.00;101206;1305;1003105;-31
2023/01/12 04:26:29;;;;;;;12.20;8.90;;;;;;;-128.00;-1.00;-1.00;101201;1305;1004158;-34
2023/01/12 04:28:54;;;;;;;16.70;10.00;;;;;;;-128.00;-1.00;-1.00;96962;1305;2599538;-33
2023/01/12 04:31:20;;;;;;;16.90;7.10;;;;;;;-128.00;-1.00;-1.00;101105;1305;1003888;-34
2023/01/12 04:33:46;;;;;;;12.50;8.40;;;;;;;-128.00;-1.00;-1.00;101158;1305;1004703;-36
2023/01/12 04:36:11;;;;;;;15.40;7.60;;;;;;;-128.00;-1.00;-1.00;101167;1305;1004083;-32
2023/01/12 05:16:38;;;;;;;15.10;9.60;;;;;;;-101.85;19.20;19906.73;101398;1298;1545966;-32
2023/01/12 05:19:05;;;;;;;17.70;9.50;;;;;;;-128.00;-1.00;-1.00;100459;1303;1004784;-31
2023/01/12 05:21:30;;;;;;;11.10;7.70;;;;;;;-128.00;-1.00;-1.00;100882;1305;1004710;-31
2023/01/12 05:23:56;;;;;;;10.60;6.70;;;;;;;-128.00;-1.00;-1.00;100865;1305;1004927;-31
2023/01/12 05:26:21;;;;;;;18.70;11.00;;;;;;;-128.00;-1.00;-1.00;100879;1305;1005143;-31
2023/01/12 05:28:48;;;;;;;16.80;10.00;;;;;;;-128.00;-1.00;-1.00;100834;1305;1004237;-34
2023/01/12 05:31:14;;;;;;;16.20;10.20;;;;;;;-128.00;-1.00;-1.00;100816;1305;1004302;-33
2023/01/12 05:33:40;;;;;;;20.50;12.60;;;;;;;-128.00;-1.00;-1.00;101033;1305;1004655;-30
2023/01/12 05:36:08;;;;;;;19.80;10.00;;;;;;;-128.00;-1.00;-1.00;100970;1305;1004385;-34
2023/01/12 05:38:34;;;;;;;16.70;7.40;;;;;;;-128.00;-1.00;-1.00;100169;1301;1003680;-35
2023/01/12 05:41:00;;;;;;;11.60;8.50;;;;;;;-128.00;-1.00;-1.00;99449;1305;1005029;-31
2023/01/12 05:45:56;;;;;;;13.30;8.50;;;;;;;-128.00;-1.00;-1.00;100956;1305;1004184;-36
2023/01/12 05:48:21;;;;;;;14.30;8.90;;;;;;;-128.00;-1.00;-1.00;100972;1305;1004598;-32
2023/01/12 05:50:47;;;;;;;16.70;11.10;;;;;;;-128.00;-1.00;-1.00;100997;1305;1003634;-30
2023/01/12 05:53:12;;;;;;;14.70;9.30;;;;;;;-128.00;-1.00;-1.00;100969;1305;1003670;-33
2023/01/12 05:55:38;;;;;;;12.80;8.10;;;;;;;-128.00;-1.00;-1.00;100946;1305;1004068;-31
2023/01/12 05:58:04;;;;;;;11.20;7.70;;;;;;;-128.00;-1.00;-1.00;100770;1305;1004730;-32
2023/01/12 06:00:30;;;;;;;18.70;8.60;;;;;;;-128.00;-1.00;-1.00;101025;1305;1004014;-37
2023/01/12 06:02:56;;;;;;;15.20;8.00;;;;;;;-128.00;-1.00;-1.00;100962;1305;1004311;-36
2023/01/12 06:05:21;;;;;;;25.60;9.60;;;;;;;-128.00;-1.00;-1.00;100918;1305;1004663;-31
2023/01/12 06:07:47;;;;;;;18.80;10.00;;;;;;;-128.00;-1.00;-1.00;100912;1305;1004632;-33
2023/01/12 06:10:12;;;;;;;16.10;9.00;;;;;;;-128.00;-1.00;-1.00;100853;1305;1005187;-32
2023/01/12 06:15:07;;;;;;;12.60;7.60;;;;;;;-128.00;-1.00;-1.00;100975;1305;1005340;-34
2023/01/12 06:17:33;;;;;;;17.30;8.60;;;;;;;-128.00;-1.00;-1.00;101035;1305;1004487;-35
2023/01/12 06:19:59;;;;;;;12.00;8.10;;;;;;;-128.00;-1.00;-1.00;100936;1305;1004035;-33
2023/01/12 06:22:26;;;;;;;19.80;10.80;;;;;;;-128.00;-1.00;-1.00;100927;1305;1004702;-36
2023/01/12 06:24:53;;;;;;;20.40;9.80;;;;;;;-128.00;-1.00;-1.00;100871;1305;1004420;-32
2023/01/12 06:27:19;;;;;;;28.20;11.80;;;;;;;-128.00;-1.00;-1.00;100624;1305;1004435;-30
2023/01/12 06:29:45;;;;;;;21.90;10.80;;;;;;;-128.00;-1.00;-1.00;100950;1305;1004337;-36
2023/01/12 06:32:10;;;;;;;17.80;9.70;;;;;;;-128.00;-1.00;-1.00;100925;1305;1005011;-34
2023/01/12 06:34:36;;;;;;;18.20;9.70;;;;;;;-128.00;-1.00;-1.00;100954;1305;1004711;-31
2023/01/12 06:37:02;;;;;;;19.30;11.10;;;;;;;-128.00;-1.00;-1.00;100917;1305;1004886;-31
2023/01/12 06:39:28;;;;;;;20.90;11.40;;;;;;;-128.00;-1.00;-1.00;100866;1305;1004875;-31
2023/01/12 06:44:23;;;;;;;25.50;12.80;;;;;;;-128.00;-1.00;-1.00;100911;1305;1003514;-32
2023/01/12 06:46:49;;;;;;;17.00;9.90;;;;;;;-128.00;-1.00;-1.00;100931;1305;1004493;-35
2023/01/12 06:49:15;;;;;;;21.30;12.00;;;;;;;-128.00;-1.00;-1.00;99503;1305;1004789;-31
2023/01/12 06:51:42;;;;;;;24.80;12.40;;;;;;;-128.00;-1.00;-1.00;100215;1305;1004630;-34
2023/01/12 06:54:08;;;;;;;21.00;11.80;;;;;;;-128.00;-1.00;-1.00;99483;1282;2005430;-36
2023/01/12 06:56:38;;;;;;;24.70;13.40;;;;;;;-128.00;-1.00;-1.00;100869;1303;1004701;-35
2023/01/12 06:59:04;;;;;;;22.40;11.90;;;;;;;-128.00;-1.00;-1.00;100757;1305;1004291;-34
2023/01/12 07:01:31;;;;;;;24.90;12.80;;;;;;;-128.00;-1.00;-1.00;100764;1305;1004293;-31
2023/01/12 07:03:58;;;;;;;20.20;11.60;;;;;;;-128.00;-1.00;-1.00;100942;1305;1004736;-34
2023/01/12 07:06:27;;;;;;;20.20;12.30;;;;;;;-128.00;-1.00;-1.00;100761;1305;1004127;-32
2023/01/12 07:08:55;;;;;;;17.80;10.10;;;;;;;-128.00;-1.00;-1.00;100756;1305;1004410;-34
2023/01/12 07:11:20;;;;;;;22.80;10.40;;;;;;;-128.00;-1.00;-1.00;100669;1305;1004178;-36
2023/01/12 07:13:46;;;;;;;21.00;10.10;;;;;;;-128.00;-1.00;-1.00;100927;1305;1004180;-32
2023/01/12 07:16:11;;;;;;;25.60;11.90;;;;;;;-128.00;-1.00;-1.00;100958;1305;1004402;-35
2023/01/12 07:18:37;;;;;;;21.00;12.30;;;;;;;-128.00;-1.00;-1.00;100933;1305;1005301;-34
2023/01/12 07:21:06;;;;;;;31.70;11.30;;;;;;;-128.00;-1.00;-1.00;100955;1305;1004917;-31
2023/01/12 07:23:31;;;;;;;36.10;14.20;;;;;;;-128.00;-1.00;-1.00;100843;1305;1003989;-35
2023/01/12 07:25:57;;;;;;;24.30;12.10;;;;;;;-128.00;-1.00;-1.00;100921;1305;1004215;-31
2023/01/12 07:28:23;;;;;;;17.20;9.30;;;;;;;-128.00;-1.00;-1.00;100960;1305;1004060;-39
2023/01/12 07:30:48;;;;;;;30.80;14.80;;;;;;;-128.00;-1.00;-1.00;100995;1305;1004634;-35
2023/01/12 07:33:15;;;;;;;24.50;11.70;;;;;;;-128.00;-1.00;-1.00;100850;1305;1004719;-31
2023/01/12 07:35:43;;;;;;;26.00;13.40;;;;;;;-128.00;-1.00;-1.00;100694;1305;1004763;-37
2023/01/12 07:38:10;;;;;;;18.00;11.70;;;;;;;-128.00;-1.00;-1.00;100769;1305;1003832;-41
2023/01/12 07:40:36;;;;;;;17.00;10.50;;;;;;;-128.00;-1.00;-1.00;100808;1305;1004776;-31
2023/01/12 07:43:03;;;;;;;16.90;9.10;;;;;;;-128.00;-1.00;-1.00;100958;1305;1004992;-32
2023/01/12 07:45:29;;;;;;;27.40;14.70;;;;;;;-128.00;-1.00;-1.00;100957;1305;1004289;-36
2023/01/12 07:47:55;;;;;;;48.60;28.30;;;;;;;-128.00;-1.00;-1.00;100904;1303;1003664;-30
2023/01/12 07:50:21;;;;;;;40.40;25.10;;;;;;;-128.00;-1.00;-1.00;100975;1305;1004047;-35
2023/01/12 07:52:47;;;;;;;30.30;17.90;;;;;;;-128.00;-1.00;-1.00;100993;1305;1004429;-34
2023/01/12 07:55:15;;;;;;;20.60;10.60;;;;;;;-128.00;-1.00;-1.00;100955;1305;1004357;-33
2023/01/12 07:57:42;;;;;;;32.60;12.80;;;;;;;-128.00;-1.00;-1.00;101038;1305;1004507;-35
2023/01/12 08:00:08;;;;;;;38.20;15.80;;;;;;;-128.00;-1.00;-1.00;100975;1305;1004766;-33
2023/01/12 08:02:34;;;;;;;36.90;19.00;;;;;;;-128.00;-1.00;-1.00;100959;1305;1005514;-31
2023/01/12 08:04:59;;;;;;;34.80;20.10;;;;;;;-128.00;-1.00;-1.00;101018;1305;1004153;-34
2023/01/12 08:07:25;;;;;;;33.60;17.60;;;;;;;-128.00;-1.00;-1.00;100982;1305;1005097;-31
2023/01/12 08:09:51;;;;;;;22.80;15.50;;;;;;;-128.00;-1.00;-1.00;100885;1305;1004439;-31
2023/01/12 08:12:17;;;;;;;22.20;10.00;;;;;;;-128.00;-1.00;-1.00;100931;1305;1004637;-34
2023/01/12 08:14:42;;;;;;;14.30;9.00;;;;;;;-128.00;-1.00;-1.00;100899;1305;1005103;-32
2023/01/12 08:17:13;;;;;;;28.90;13.10;;;;;;;-128.00;-1.00;-1.00;100990;1305;1004090;-36
2023/01/12 08:19:41;;;;;;;19.10;10.50;;;;;;;-128.00;-1.00;-1.00;101027;1305;1004619;-34
2023/01/12 08:22:11;;;;;;;53.70;10.80;;;;;;;-128.00;-1.00;-1.00;100997;1305;1004466;-32
2023/01/12 08:24:40;;;;;;;21.90;10.70;;;;;;;-128.00;-1.00;-1.00;100357;1305;1004481;-36
2023/01/12 08:27:06;;;;;;;28.30;11.40;;;;;;;-128.00;-1.00;-1.00;101163;1305;1004156;-35
2023/01/12 08:29:39;;;;;;;11.80;8.30;;;;;;;-128.00;-1.00;-1.00;101092;1305;1003474;-30
2023/01/12 08:32:05;;;;;;;20.80;9.20;;;;;;;-128.00;-1.00;-1.00;101049;1305;1003228;-31
2023/01/12 08:34:32;;;;;;;18.30;10.30;;;;;;;-128.00;-1.00;-1.00;101160;1305;1004193;-36
2023/01/12 08:36:58;;;;;;;13.90;8.80;;;;;;;-128.00;-1.00;-1.00;101189;1305;1002738;-33
2023/01/12 08:39:23;;;;;;;15.50;8.10;;;;;;;-128.00;-1.00;-1.00;101122;1305;1004395;-32
2023/01/12 08:41:49;;;;;;;13.30;8.30;;;;;;;-128.00;-1.00;-1.00;101015;1305;1003042;-32
2023/01/12 08:44:15;;;;;;;12.70;8.60;;;;;;;-128.00;-1.00;-1.00;101213;1305;1004471;-35
2023/01/12 08:46:47;;;;;;;9.50;7.50;;;;;;;-128.00;-1.00;-1.00;101089;1305;1005253;-36
2023/01/12 08:49:14;;;;;;;20.40;6.50;;;;;;;-128.00;-1.00;-1.00;101097;1305;1003543;-32
2023/01/12 08:51:39;;;;;;;9.30;4.50;;;;;;;-128.00;-1.00;-1.00;101027;1305;1003219;-32
2023/01/12 08:54:06;;;;;;;8.00;4.50;;;;;;;-128.00;-1.00;-1.00;101132;1305;1004231;-36
2023/01/12 08:56:32;;;;;;;6.20;4.60;;;;;;;-128.00;-1.00;-1.00;101137;1305;1003105;-36
2023/01/12 08:58:58;;;;;;;8.40;3.40;;;;;;;-128.00;-1.00;-1.00;101168;1305;1004050;-36
2023/01/12 09:01:23;;;;;;;8.40;4.90;;;;;;;-128.00;-1.00;-1.00;101163;1305;1003148;-34
2023/01/12 09:03:50;;;;;;;6.90;3.90;;;;;;;-128.00;-1.00;-1.00;101095;1305;1003422;-34
2023/01/12 09:06:18;;;;;;;6.60;3.30;;;;;;;-128.00;-1.00;-1.00;101090;1305;1003267;-37
2023/01/12 09:08:44;;;;;;;4.90;3.80;;;;;;;-128.00;-1.00;-1.00;101106;1305;1002899;-34
2023/01/12 09:11:10;;;;;;;10.90;4.00;;;;;;;-128.00;-1.00;-1.00;101102;1305;1003364;-31
2023/01/12 09:13:36;;;;;;;6.90;4.00;;;;;;;-128.00;-1.00;-1.00;101080;1305;1002923;-34
2023/01/12 09:16:04;;;;;;;7.50;3.70;;;;;;;-128.00;-1.00;-1.00;101146;1305;1003970;-34
2023/01/12 09:18:29;;;;;;;11.90;2.40;;;;;;;-128.00;-1.00;-1.00;101141;1305;1004223;-34
2023/01/12 09:21:00;;;;;;;6.30;3.90;;;;;;;-128.00;-1.00;-1.00;101092;1305;1003743;-31
2023/01/12 09:23:26;;;;;;;8.80;3.70;;;;;;;-128.00;-1.00;-1.00;101055;1305;1003046;-31
2023/01/12 09:25:51;;;;;;;7.00;3.20;;;;;;;-128.00;-1.00;-1.00;101124;1305;1005430;-36
2023/01/12 09:28:17;;;;;;;7.80;3.90;;;;;;;-128.00;-1.00;-1.00;101139;1305;1002995;-36
2023/01/12 09:30:42;;;;;;;5.60;2.90;;;;;;;-128.00;-1.00;-1.00;101082;1305;1003138;-35
2023/01/12 09:33:08;;;;;;;7.30;2.70;;;;;;;-128.00;-1.00;-1.00;101091;1305;1002896;-34
2023/01/12 09:35:34;;;;;;;9.70;4.10;;;;;;;-128.00;-1.00;-1.00;101048;1305;1004124;-34
2023/01/12 09:37:59;;;;;;;5.60;1.80;;;;;;;-128.00;-1.00;-1.00;101082;1305;1003280;-31
2023/01/12 09:40:25;;;;;;;7.70;2.90;;;;;;;-128.00;-1.00;-1.00;101048;1305;1002870;-30
2023/01/12 09:48:07;;;;;;;7.40;2.90;;;;;;;-128.00;-1.00;-1.00;101053;1305;1002854;-35
2023/01/12 09:50:35;;;;;;;6.60;2.80;;;;;;;-128.00;-1.00;-1.00;100804;1305;1003044;-31
2023/01/12 09:53:05;;;;;;;5.30;2.30;;;;;;;-128.00;-1.00;-1.00;101081;1305;1003135;-34
2023/01/12 09:55:38;;;;;;;5.10;2.60;;;;;;;-128.00;-1.00;-1.00;101184;1302;1002824;-31
2023/01/12 09:58:12;;;;;;;6.30;2.80;;;;;;;-128.00;-1.00;-1.00;101127;1305;1002562;-31
2023/01/12 10:00:38;;;;;;;6.70;3.40;;;;;;;-128.00;-1.00;-1.00;101100;1302;1002807;-33
2023/01/12 10:03:22;;;;;;;9.60;3.00;;;;;;;-128.00;-1.00;-1.00;101014;1305;1003923;-35
2023/01/12 10:05:51;;;;;;;7.00;3.20;;;;;;;-128.00;-1.00;-1.00;101094;1305;1003438;-31
2023/01/12 10:08:30;;;;;;;6.10;3.70;;;;;;;-128.00;-1.00;-1.00;101122;1297;1003875;-32
2023/01/12 10:11:21;;;;;;;6.10;3.20;;;;;;;-128.00;-1.00;-1.00;101025;1305;1003825;-35
2023/01/12 10:14:10;;;;;;;12.90;2.90;;;;;;;-128.00;-1.00;-1.00;101124;1305;1003516;-35
2023/01/12 10:16:46;;;;;;;3.30;2.00;;;;;;;-128.00;-1.00;-1.00;101083;1305;1002893;-36
2023/01/12 10:19:21;;;;;;;5.30;2.80;;;;;;;-128.00;-1.00;-1.00;101071;1303;1002949;-36
2023/01/12 10:21:46;;;;;;;10.80;3.30;;;;;;;-128.00;-1.00;-1.00;101011;1305;1003157;-32
2023/01/12 10:24:12;;;;;;;7.10;3.50;;;;;;;-128.00;-1.00;-1.00;101002;1305;1003288;-32
2023/01/12 10:26:42;;;;;;;5.10;2.90;;;;;;;-128.00;-1.00;-1.00;100963;1305;1002983;-32
2023/01/12 10:29:09;;;;;;;7.10;4.10;;;;;;;-128.00;-1.00;-1.00;101136;1305;1003010;-36
2023/01/12 10:31:35;;;;;;;4.80;2.60;;;;;;;-128.00;-1.00;-1.00;101078;1302;1002791;-32
2023/01/12 10:34:03;;;;;;;7.10;3.40;;;;;;;-128.00;-1.00;-1.00;101092;1305;1004405;-31
2023/01/12 10:36:29;;;;;;;8.80;4.00;;;;;;;-128.00;-1.00;-1.00;101148;1305;1004254;-32
2023/01/12 10:38:58;;;;;;;7.90;4.20;;;;;;;-128.00;-1.00;-1.00;101092;1305;1003051;-32
2023/01/12 10:41:36;;;;;;;15.90;3.60;;;;;;;-128.00;-1.00;-1.00;101140;1305;1003138;-34
2023/01/12 10:44:10;;;;;;;6.80;3.30;;;;;;;-128.00;-1.00;-1.00;101083;1305;1002910;-32
2023/01/12 10:46:36;;;;;;;6.80;2.00;;;;;;;-128.00;-1.00;-1.00;100912;1305;1003587;-32
2023/01/12 10:49:22;;;;;;;4.30;1.90;;;;;;;-128.00;-1.00;-1.00;100904;1305;1002962;-32
2023/01/12 10:52:07;;;;;;;4.70;1.80;;;;;;;-128.00;-1.00;-1.00;101099;1305;1003239;-31
2023/01/12 10:54:34;;;;;;;5.90;2.60;;;;;;;-128.00;-1.00;-1.00;101050;1305;1003404;-32
2023/01/12 10:57:06;;;;;;;7.40;3.40;;;;;;;-128.00;-1.00;-1.00;101112;1305;1002899;-32
2023/01/12 10:59:33;;;;;;;7.60;2.60;;;;;;;-128.00;-1.00;-1.00;100941;1305;1002951;-34
2023/01/12 11:02:11;;;;;;;4.90;2.00;;;;;;;-128.00;-1.00;-1.00;101095;1305;1002495;-34
2023/01/12 11:04:43;;;;;;;3.90;1.50;;;;;;;-128.00;-1.00;-1.00;101061;1305;1002920;-34
2023/01/12 11:46:04;;;;;;;11.60;0.90;;;;;;;10.93;70.34;99293.04;104322;1299;558011;-32
2023/01/12 11:48:34;;;;;;;;;;;;;;;10.95;69.18;99291.36;104189;1304;452318;-33
2023/01/12 11:51:00;;;;;;;2.90;0.60;;;;;;;10.83;67.49;99284.70;104544;1295;22620;-36
2023/01/12 11:53:25;;;;;;;3.10;1.00;;;;;;;11.05;67.39;99277.04;104515;1304;22662;-36
2023/01/12 11:56:23;;;;;;;3.20;0.60;;;;;;;11.25;65.34;99275.27;104662;1292;22824;-38
2023/01/12 11:58:55;;;;;;;5.70;0.50;;;;;;;11.22;63.63;99256.12;104514;1304;25984;-32
2023/01/12 12:01:42;;;;;;;3.90;1.00;;;;;;;11.16;65.06;99257.60;104536;1294;23287;-32
2023/01/12 12:04:31;;;;;;;11.70;1.00;;;;;;;10.95;65.56;99255.17;104773;1292;22670;-32
2023/01/12 12:07:19;;;;;;;2.80;0.40;;;;;;;11.15;63.03;99248.98;104650;1294;24308;-30
2023/01/12 12:09:52;;;;;;;2.50;0.40;;;;;;;10.69;63.56;99241.79;104524;1295;24541;-31
2023/01/12 12:12:25;;;;;;;4.40;0.60;;;;;;;11.23;61.83;99236.66;104768;1292;25396;-35
2023/01/12 12:15:01;;;;;;;0.80;0.20;;;;;;;11.27;61.93;99241.89;104609;1301;25358;-31
2023/01/12 12:17:35;;;;;;;2.80;0.40;;;;;;;11.18;63.53;99242.54;104565;1301;22654;-30
2023/01/12 12:20:27;;;;;;;1.70;0.40;;;;;;;11.45;61.58;99234.64;104573;1301;22660;-31
2023/01/12 12:23:10;;;;;;;5.80;0.50;;;;;;;11.48;61.43;99233.06;104604;1292;22796;-32
2023/01/12 12:25:51;;;;;;;2.40;0.40;;;;;;;11.14;61.44;99226.29;104562;1304;22555;-36
2023/01/12 12:28:41;;;;;;;1.60;0.40;;;;;;;11.21;61.79;99225.22;104536;1292;22683;-32
2023/01/12 12:31:25;;;;;;;0.90;0.30;;;;;;;11.76;58.77;99214.40;104676;1292;22654;-36
2023/01/12 12:34:11;;;;;;;3.30;0.40;;;;;;;11.73;57.60;99215.02;104504;1292;22686;-32
2023/01/12 12:36:46;;;;;;;4.30;0.40;;;;;;;11.30;58.57;99217.38;104616;1304;23326;-34
2023/01/12 12:39:34;;;;;;;1.00;0.30;;;;;;;11.53;57.58;99215.16;104576;1285;25373;-34
2023/01/12 12:45:17;;;;;;;2.00;0.60;;;;;;;11.77;57.75;99212.86;104497;1289;22786;-32
2023/01/12 12:48:15;;;;;;;2.30;0.40;;;;;;;11.70;57.49;99215.89;104554;1304;23154;-33
2023/01/12 12:50:51;;;;;;;2.80;0.60;;;;;;;11.51;58.39;99220.32;104604;1304;23167;-30
2023/01/12 12:53:26;;;;;;;13.40;0.60;;;;;;;11.54;56.79;99214.41;104554;1295;23043;-32
2023/01/12 12:55:52;;;;;;;4.60;0.50;;;;;;;11.48;56.73;99209.81;104482;1295;22811;-31
2023/01/12 12:58:41;;;;;;;0.70;0.30;;;;;;;11.27;57.13;99210.42;104371;1298;22667;-36
2023/01/12 13:01:37;;;;;;;1.70;0.30;;;;;;;11.19;57.29;99205.29;104490;1286;22566;-32
2023/01/12 13:04:04;;;;;;;7.00;0.50;;;;;;;11.02;58.26;99207.38;104587;1304;22801;-32
2023/01/12 13:06:34;;;;;;;1.40;0.70;;;;;;;11.03;57.87;99195.73;104576;1301;22550;-36
2023/01/12 13:09:01;;;;;;;1.90;0.30;;;;;;;10.45;59.83;99198.16;104541;1304;22819;-36
2023/01/12 13:11:46;;;;;;;4.70;0.60;;;;;;;10.39;59.33;99200.45;104543;1294;23042;-31